createdAt,value
2023-03-05T00:00:15.743Z,85.58
2023-03-05T00:01:11.023Z,85.61
2023-03-05T00:01:58.067Z,85.97
2023-03-05T00:02:45.146Z,86.19
2023-03-05T00:03:32.284Z,86.18
2023-03-05T00:04:19.365Z,85.97
2023-03-05T00:05:07.090Z,85.82
2023-03-05T00:05:57.933Z,86.05
2023-03-05T00:06:45.115Z,85.55
2023-03-05T00:07:32.185Z,85.38
2023-03-05T00:08:19.306Z,85.29
2023-03-05T00:09:06.763Z,85.03
2023-03-05T00:09:53.698Z,84.84
2023-03-05T00:10:40.755Z,84.53
2023-03-05T00:11:30.383Z,84.36
2023-03-05T00:12:17.426Z,84.09
2023-03-05T00:13:04.408Z,83.87
2023-03-05T00:13:54.538Z,83.46
2023-03-05T00:14:41.490Z,83.19
2023-03-05T00:15:28.507Z,82.90
2023-03-05T00:16:16.590Z,82.72
2023-03-05T00:17:03.653Z,82.75
2023-03-05T00:17:50.643Z,82.72
2023-03-05T00:18:38.667Z,82.75
2023-03-05T00:19:25.635Z,82.67
2023-03-05T00:20:13.067Z,82.63
2023-03-05T00:21:00.158Z,82.29
2023-03-05T00:21:47.144Z,81.96
2023-03-05T00:22:35.625Z,81.42
2023-03-05T00:23:22.665Z,81.51
2023-03-05T00:24:18.442Z,81.84
2023-03-05T00:25:06.281Z,81.69
2023-03-05T00:25:53.219Z,81.09
2023-03-05T00:26:40.640Z,80.87
2023-03-05T00:27:27.719Z,80.94
2023-03-05T00:28:14.999Z,80.53
2023-03-05T00:29:02.483Z,80.53
2023-03-05T00:29:49.531Z,80.54
2023-03-05T00:30:36.852Z,80.50
2023-03-05T00:31:32.605Z,80.38
2023-03-05T00:32:19.795Z,79.95
2023-03-05T00:33:07.310Z,80.06
2023-03-05T00:33:55.293Z,79.84
2023-03-05T00:34:42.383Z,79.79
2023-03-05T00:35:30.610Z,79.89
2023-03-05T00:36:17.725Z,79.70
2023-03-05T00:37:04.817Z,79.70
2023-03-05T00:37:51.787Z,79.62
2023-03-05T00:38:39.192Z,79.40
2023-03-05T00:39:26.268Z,79.27
2023-03-05T00:40:13.470Z,79.19
2023-03-05T00:41:00.552Z,79.11
2023-03-05T00:41:47.917Z,78.28
2023-03-05T00:42:38.867Z,77.85
2023-03-05T00:43:25.861Z,77.73
2023-03-05T00:44:13.322Z,77.83
2023-03-05T00:45:17.046Z,76.72
2023-03-05T00:46:04.474Z,76.72
2023-03-05T00:46:51.561Z,77.40
2023-03-05T00:47:39.040Z,77.39
2023-03-05T00:48:25.958Z,77.32
2023-03-05T00:49:13.382Z,77.01
2023-03-05T00:50:00.521Z,77.33
2023-03-05T00:50:47.511Z,77.28
2023-03-05T00:51:34.638Z,76.73
2023-03-05T00:52:21.670Z,76.95
2023-03-05T00:53:08.669Z,76.71
2023-03-05T00:53:56.206Z,76.51
2023-03-05T00:54:43.194Z,76.61
2023-03-05T00:55:30.224Z,76.76
2023-03-05T00:56:17.312Z,76.64
2023-03-05T00:57:06.075Z,77.09
2023-03-05T00:57:53.064Z,77.46
2023-03-05T00:58:40.286Z,77.59
2023-03-05T00:59:27.318Z,77.61
2023-03-05T01:00:15.233Z,77.27
2023-03-05T01:01:03.056Z,77.17
2023-03-05T01:01:50.233Z,76.72
2023-03-05T01:02:37.375Z,76.80
2023-03-05T01:03:24.365Z,76.37
2023-03-05T01:04:11.361Z,76.12
2023-03-05T01:04:58.440Z,76.28
2023-03-05T01:05:45.692Z,76.46
2023-03-05T01:06:32.841Z,76.52
2023-03-05T01:07:19.991Z,76.55
2023-03-05T01:08:07.037Z,76.52
2023-03-05T01:08:54.195Z,76.24
2023-03-05T01:09:41.190Z,76.27
2023-03-05T01:10:29.322Z,76.17
2023-03-05T01:11:16.379Z,76.26
2023-03-05T01:12:03.500Z,76.05
2023-03-05T01:12:50.539Z,75.41
2023-03-05T01:13:38.086Z,74.87
2023-03-05T01:14:25.049Z,74.43
2023-03-05T01:15:12.479Z,74.66
2023-03-05T01:15:59.546Z,74.93
2023-03-05T01:16:46.892Z,74.93
2023-03-05T01:17:34.742Z,74.91
2023-03-05T01:18:21.872Z,74.88
2023-03-05T01:19:09.181Z,75.12
2023-03-05T01:19:56.362Z,75.57
2023-03-05T01:20:43.841Z,75.66
2023-03-05T01:21:31.003Z,75.60
2023-03-05T01:22:18.033Z,75.44
2023-03-05T01:23:05.204Z,75.23
2023-03-05T01:23:52.372Z,74.90
2023-03-05T01:24:39.494Z,74.28
2023-03-05T01:25:26.474Z,74.21
2023-03-05T01:26:14.110Z,74.40
2023-03-05T01:27:01.136Z,73.79
2023-03-05T01:27:48.131Z,73.28
2023-03-05T01:28:35.352Z,73.38
2023-03-05T01:29:22.421Z,73.73
2023-03-05T01:30:10.399Z,73.52
2023-03-05T01:30:57.437Z,73.15
2023-03-05T01:31:44.690Z,73.34
2023-03-05T01:32:32.031Z,73.76
2023-03-05T01:33:19.604Z,73.27
2023-03-05T01:34:06.616Z,72.89
2023-03-05T01:34:53.710Z,72.63
2023-03-05T01:35:40.781Z,73.12
2023-03-05T01:36:27.844Z,73.29
2023-03-05T01:37:14.882Z,73.68
2023-03-05T01:38:01.960Z,73.55
2023-03-05T01:38:49.069Z,73.25
2023-03-05T01:39:36.649Z,73.27
2023-03-05T01:40:29.180Z,73.08
2023-03-05T01:41:17.596Z,72.53
2023-03-05T01:42:05.083Z,72.82
2023-03-05T01:43:02.229Z,72.75
2023-03-05T01:43:49.757Z,73.02
2023-03-05T01:44:36.808Z,73.19
2023-03-05T01:45:25.184Z,73.47
2023-03-05T01:46:35.710Z,73.59
2023-03-05T01:47:22.698Z,73.12
2023-03-05T01:48:09.633Z,72.95
2023-03-05T01:49:20.321Z,72.40
2023-03-05T01:50:10.084Z,72.59
2023-03-05T01:50:57.222Z,72.60
2023-03-05T01:51:49.835Z,72.55
2023-03-05T01:52:38.932Z,72.68
2023-03-05T01:53:25.884Z,72.54
2023-03-05T01:54:14.458Z,72.28
2023-03-05T01:55:09.402Z,72.33
2023-03-05T01:55:56.415Z,72.51
2023-03-05T01:56:44.034Z,72.15
2023-03-05T01:57:40.839Z,72.22
2023-03-05T01:58:28.110Z,72.03
2023-03-05T01:59:15.817Z,71.50
2023-03-05T02:00:10.672Z,71.79
2023-03-05T02:00:57.928Z,71.42
2023-03-05T02:01:47.124Z,71.44
2023-03-05T02:02:34.205Z,71.85
2023-03-05T02:03:23.144Z,71.95
2023-03-05T02:04:12.382Z,71.87
2023-03-05T02:05:09.076Z,71.96
2023-03-05T02:05:56.098Z,72.18
2023-03-05T02:06:43.732Z,72.40
2023-03-05T02:07:31.875Z,72.08
2023-03-05T02:08:21.127Z,71.38
2023-03-05T02:09:08.220Z,71.52
2023-03-05T02:09:55.172Z,71.88
2023-03-05T02:10:57.597Z,72.19
2023-03-05T02:11:44.619Z,72.04
2023-03-05T02:12:31.725Z,72.07
2023-03-05T02:13:22.974Z,71.93
2023-03-05T02:14:10.517Z,72.18
2023-03-05T02:14:59.663Z,72.11
2023-03-05T02:15:48.008Z,72.20
2023-03-05T02:16:38.465Z,72.04
2023-03-05T02:17:28.074Z,72.04
2023-03-05T02:18:15.054Z,72.28
2023-03-05T02:19:07.023Z,71.63
2023-03-05T02:19:57.337Z,71.80
2023-03-05T02:20:57.868Z,72.27
2023-03-05T02:21:47.440Z,72.04
2023-03-05T02:22:34.559Z,71.94
2023-03-05T02:23:23.873Z,72.18
2023-03-05T02:24:20.102Z,72.22
2023-03-05T02:25:16.302Z,72.20
2023-03-05T02:26:09.335Z,71.83
2023-03-05T02:26:56.400Z,71.96
2023-03-05T02:27:47.200Z,72.03
2023-03-05T02:28:43.751Z,72.11
2023-03-05T02:29:32.352Z,71.96
2023-03-05T02:30:19.531Z,71.80
2023-03-05T02:31:12.435Z,72.06
2023-03-05T02:31:59.619Z,71.89
2023-03-05T02:32:46.771Z,71.82
2023-03-05T02:33:33.913Z,71.82
2023-03-05T02:34:21.037Z,72.05
2023-03-05T02:35:08.528Z,72.14
2023-03-05T02:35:55.685Z,72.18
2023-03-05T02:36:42.741Z,72.18
2023-03-05T02:37:29.759Z,72.00
2023-03-05T02:38:20.299Z,72.01
2023-03-05T02:39:09.856Z,72.02
2023-03-05T02:39:56.878Z,71.99
2023-03-05T02:40:44.051Z,71.25
2023-03-05T02:41:31.148Z,71.31
2023-03-05T02:42:18.373Z,71.42
2023-03-05T02:43:05.655Z,71.44
2023-03-05T02:43:52.812Z,71.33
2023-03-05T02:44:39.820Z,71.58
2023-03-05T02:45:26.981Z,71.65
2023-03-05T02:46:14.264Z,71.37
2023-03-05T02:47:01.269Z,71.48
2023-03-05T02:47:48.255Z,71.01
2023-03-05T02:48:35.298Z,71.37
2023-03-05T02:49:22.320Z,71.21
2023-03-05T02:50:11.680Z,70.92
2023-03-05T02:50:58.688Z,71.47
2023-03-05T02:51:45.749Z,71.62
2023-03-05T02:52:33.412Z,71.36
2023-03-05T02:53:20.464Z,71.05
2023-03-05T02:54:07.647Z,70.92
2023-03-05T02:54:54.757Z,71.08
2023-03-05T02:55:41.733Z,70.89
2023-03-05T02:56:28.750Z,70.74
2023-03-05T02:57:16.320Z,70.86
2023-03-05T02:58:03.382Z,70.69
2023-03-05T02:58:50.316Z,70.99
2023-03-05T02:59:37.374Z,70.76
2023-03-05T03:00:24.757Z,71.03
2023-03-05T03:01:12.168Z,70.87
2023-03-05T03:01:59.178Z,70.69
2023-03-05T03:02:46.317Z,71.01
2023-03-05T03:03:33.346Z,71.00
2023-03-05T03:04:20.368Z,71.00
2023-03-05T03:05:07.935Z,70.73
2023-03-05T03:05:54.974Z,71.10
2023-03-05T03:06:41.994Z,70.98
2023-03-05T03:07:28.969Z,71.14
2023-03-05T03:08:16.123Z,70.95
2023-03-05T03:09:03.454Z,70.48
2023-03-05T03:09:50.531Z,70.25
2023-03-05T03:10:37.621Z,69.91
2023-03-05T03:11:24.633Z,70.00
2023-03-05T03:12:12.294Z,70.06
2023-03-05T03:12:59.370Z,70.54
2023-03-05T03:13:46.462Z,69.90
2023-03-05T03:14:39.318Z,70.15
2023-03-05T03:15:26.554Z,70.35
2023-03-05T03:16:15.345Z,70.40
2023-03-05T03:17:02.385Z,70.00
2023-03-05T03:17:49.405Z,69.69
2023-03-05T03:18:36.800Z,70.09
2023-03-05T03:19:23.937Z,70.17
2023-03-05T03:20:14.432Z,70.21
2023-03-05T03:21:01.845Z,70.31
2023-03-05T03:21:50.519Z,69.89
2023-03-05T03:22:37.932Z,70.24
2023-03-05T03:23:25.167Z,70.01
2023-03-05T03:24:12.166Z,70.09
2023-03-05T03:24:59.288Z,69.64
2023-03-05T03:25:46.228Z,69.89
2023-03-05T03:26:33.334Z,70.37
2023-03-05T03:27:20.324Z,69.82
2023-03-05T03:28:07.327Z,69.52
2023-03-05T03:28:54.423Z,69.58
2023-03-05T03:29:41.468Z,69.35
2023-03-05T03:30:28.508Z,69.77
2023-03-05T03:31:15.678Z,69.29
2023-03-05T03:32:03.139Z,69.33
2023-03-05T03:32:51.937Z,69.66
2023-03-05T03:33:38.855Z,69.94
2023-03-05T03:34:26.942Z,69.67
2023-03-05T03:35:14.410Z,69.55
2023-03-05T03:36:01.647Z,69.38
2023-03-05T03:36:49.560Z,70.01
2023-03-05T03:37:36.730Z,69.92
2023-03-05T03:38:23.731Z,69.62
2023-03-05T03:39:11.393Z,69.75
2023-03-05T03:39:58.541Z,69.48
2023-03-05T03:40:45.532Z,69.13
2023-03-05T03:41:33.500Z,69.25
2023-03-05T03:42:21.659Z,69.46
2023-03-05T03:43:08.973Z,69.54
2023-03-05T03:43:55.988Z,69.21
2023-03-05T03:44:43.055Z,70.40
2023-03-05T03:45:30.131Z,69.34
2023-03-05T03:46:17.311Z,69.45
2023-03-05T03:47:04.626Z,69.79
2023-03-05T03:47:52.412Z,69.39
2023-03-05T03:48:39.405Z,69.33
2023-03-05T03:49:26.981Z,69.45
2023-03-05T03:50:14.030Z,68.99
2023-03-05T03:51:05.027Z,68.95
2023-03-05T03:51:54.825Z,68.87
2023-03-05T03:52:41.911Z,69.01
2023-03-05T03:53:29.016Z,69.28
2023-03-05T03:54:16.894Z,69.55
2023-03-05T03:55:04.205Z,69.65
2023-03-05T03:55:51.170Z,69.01
2023-03-05T03:56:38.138Z,69.15
2023-03-05T03:57:25.174Z,69.47
2023-03-05T03:58:12.457Z,69.30
2023-03-05T03:58:59.507Z,69.38
2023-03-05T03:59:46.513Z,69.37
2023-03-05T04:00:33.523Z,69.70
2023-03-05T04:01:21.381Z,69.33
2023-03-05T04:02:08.446Z,69.51
2023-03-05T04:02:55.477Z,69.32
2023-03-05T04:03:42.492Z,69.37
2023-03-05T04:04:30.565Z,69.28
2023-03-05T04:05:17.824Z,69.28
2023-03-05T04:06:05.174Z,69.47
2023-03-05T04:06:52.347Z,69.31
2023-03-05T04:07:39.382Z,69.00
2023-03-05T04:08:26.489Z,69.22
2023-03-05T04:09:13.478Z,69.31
2023-03-05T04:10:00.471Z,69.16
2023-03-05T04:10:47.446Z,69.51
2023-03-05T04:11:35.579Z,69.56
2023-03-05T04:12:22.972Z,69.10
2023-03-05T04:13:10.009Z,69.01
2023-03-05T04:13:56.997Z,69.12
2023-03-05T04:14:48.408Z,69.42
2023-03-05T04:15:35.406Z,69.08
2023-03-05T04:16:22.765Z,68.63
2023-03-05T04:17:09.768Z,68.91
2023-03-05T04:17:56.760Z,69.27
2023-03-05T04:18:43.835Z,69.49
2023-03-05T04:19:31.088Z,69.31
2023-03-05T04:20:18.271Z,69.01
2023-03-05T04:21:06.162Z,68.97
2023-03-05T04:21:53.132Z,68.70
2023-03-05T04:22:40.156Z,68.73
2023-03-05T04:23:27.162Z,69.11
2023-03-05T04:24:14.260Z,69.22
2023-03-05T04:25:03.943Z,69.42
2023-03-05T04:25:50.989Z,69.24
2023-03-05T04:26:37.989Z,68.67
2023-03-05T04:27:25.081Z,68.62
2023-03-05T04:28:12.496Z,68.64
2023-03-05T04:28:59.560Z,68.72
2023-03-05T04:29:46.635Z,68.93
2023-03-05T04:30:34.060Z,69.14
2023-03-05T04:31:21.244Z,69.00
2023-03-05T04:32:08.857Z,68.88
2023-03-05T04:32:55.928Z,68.93
2023-03-05T04:33:43.013Z,68.95
2023-03-05T04:34:30.156Z,68.87
2023-03-05T04:35:18.033Z,68.59
2023-03-05T04:36:05.360Z,68.83
2023-03-05T04:36:52.528Z,68.92
2023-03-05T04:37:39.561Z,69.09
2023-03-05T04:38:26.519Z,69.03
2023-03-05T04:39:13.477Z,68.97
2023-03-05T04:40:00.624Z,68.85
2023-03-05T04:40:48.046Z,68.91
2023-03-05T04:41:35.144Z,68.77
2023-03-05T04:42:22.209Z,68.84
2023-03-05T04:43:09.282Z,68.81
2023-03-05T04:43:56.189Z,68.94
2023-03-05T04:44:43.224Z,68.76
2023-03-05T04:45:30.323Z,68.77
2023-03-05T04:46:17.336Z,68.76
2023-03-05T04:47:04.639Z,68.81
2023-03-05T04:47:51.679Z,68.99
2023-03-05T04:48:38.727Z,68.84
2023-03-05T04:49:25.848Z,68.64
2023-03-05T04:50:13.125Z,68.49
2023-03-05T04:51:00.164Z,68.58
2023-03-05T04:51:47.180Z,68.86
2023-03-05T04:52:34.159Z,68.93
2023-03-05T04:53:21.237Z,69.00
2023-03-05T04:54:08.811Z,69.20
2023-03-05T04:54:55.751Z,69.11
2023-03-05T04:55:43.702Z,68.78
2023-03-05T04:56:30.638Z,68.89
2023-03-05T04:57:17.894Z,69.07
2023-03-05T04:58:04.984Z,69.14
2023-03-05T04:58:51.997Z,69.04
2023-03-05T04:59:39.198Z,69.59
2023-03-05T05:00:26.397Z,69.49
2023-03-05T05:01:13.566Z,69.56
2023-03-05T05:02:00.694Z,70.06
2023-03-05T05:02:50.442Z,70.21
2023-03-05T05:03:37.613Z,69.78
2023-03-05T05:04:24.691Z,69.02
2023-03-05T05:05:17.297Z,68.96
2023-03-05T05:06:04.485Z,68.96
2023-03-05T05:06:51.528Z,69.20
2023-03-05T05:07:38.526Z,69.15
2023-03-05T05:08:26.016Z,68.93
2023-03-05T05:09:13.201Z,68.99
2023-03-05T05:10:00.248Z,68.97
2023-03-05T05:10:47.287Z,68.70
2023-03-05T05:11:34.376Z,68.73
2023-03-05T05:12:21.496Z,68.67
2023-03-05T05:13:08.615Z,68.65
2023-03-05T05:13:56.796Z,68.61
2023-03-05T05:14:43.917Z,68.67
2023-03-05T05:15:32.527Z,69.10
2023-03-05T05:16:19.571Z,69.14
2023-03-05T05:17:06.716Z,69.25
2023-03-05T05:17:53.896Z,69.26
2023-03-05T05:18:41.002Z,69.17
2023-03-05T05:19:28.084Z,69.17
2023-03-05T05:20:16.228Z,69.01
2023-03-05T05:21:07.883Z,68.93
2023-03-05T05:21:54.941Z,68.60
2023-03-05T05:22:42.589Z,68.89
2023-03-05T05:23:29.679Z,68.99
2023-03-05T05:24:16.688Z,69.14
2023-03-05T05:25:04.486Z,69.25
2023-03-05T05:26:02.353Z,69.26
2023-03-05T05:26:49.475Z,69.35
2023-03-05T05:27:37.663Z,69.31
2023-03-05T05:28:24.800Z,69.18
2023-03-05T05:29:11.768Z,69.31
2023-03-05T05:29:58.943Z,69.50
2023-03-05T05:30:45.992Z,69.85
2023-03-05T05:31:33.074Z,69.92
2023-03-05T05:32:22.638Z,70.01
2023-03-05T05:33:09.730Z,69.67
2023-03-05T05:33:56.763Z,69.42
2023-03-05T05:34:43.784Z,69.35
2023-03-05T05:35:30.910Z,69.23
2023-03-05T05:36:19.609Z,69.49
2023-03-05T05:37:06.672Z,69.73
2023-03-05T05:37:53.839Z,69.61
2023-03-05T05:38:41.372Z,69.84
2023-03-05T05:39:28.423Z,69.84
2023-03-05T05:40:15.517Z,69.97
2023-03-05T05:41:07.718Z,70.14
2023-03-05T05:41:54.702Z,70.38
2023-03-05T05:42:41.846Z,70.28
2023-03-05T05:43:28.942Z,70.36
2023-03-05T05:44:15.971Z,70.35
2023-03-05T05:45:03.409Z,70.08
2023-03-05T05:45:50.538Z,70.08
2023-03-05T05:46:37.663Z,70.19
2023-03-05T05:47:24.686Z,69.88
2023-03-05T05:48:11.747Z,70.04
2023-03-05T05:48:58.889Z,70.13
2023-03-05T05:49:45.963Z,70.16
2023-03-05T05:50:33.021Z,70.40
2023-03-05T05:51:22.085Z,70.09
2023-03-05T05:52:09.302Z,70.23
2023-03-05T05:52:56.327Z,70.47
2023-03-05T05:53:43.981Z,70.31
2023-03-05T05:54:30.993Z,70.39
2023-03-05T05:55:18.596Z,70.88
2023-03-05T05:56:07.132Z,70.74
2023-03-05T05:56:54.358Z,70.03
2023-03-05T05:57:41.473Z,69.60
2023-03-05T05:58:28.498Z,70.09
2023-03-05T05:59:15.521Z,70.18
2023-03-05T06:00:04.031Z,69.78
2023-03-05T06:00:51.130Z,69.48
2023-03-05T06:01:38.280Z,69.56
2023-03-05T06:02:25.349Z,69.67
2023-03-05T06:03:12.478Z,69.63
2023-03-05T06:04:00.304Z,69.53
2023-03-05T06:04:47.451Z,70.04
2023-03-05T06:05:35.091Z,70.46
2023-03-05T06:06:24.248Z,70.49
2023-03-05T06:07:11.317Z,70.48
2023-03-05T06:07:58.321Z,70.41
2023-03-05T06:08:45.652Z,70.27
2023-03-05T06:09:32.767Z,70.51
2023-03-05T06:10:19.857Z,70.88
2023-03-05T06:11:07.686Z,71.18
2023-03-05T06:11:54.691Z,70.79
2023-03-05T06:12:41.636Z,70.79
2023-03-05T06:13:28.600Z,70.75
2023-03-05T06:14:15.580Z,70.60
2023-03-05T06:15:02.643Z,70.49
2023-03-05T06:15:58.172Z,70.04
2023-03-05T06:16:45.442Z,70.15
2023-03-05T06:17:32.423Z,70.08
2023-03-05T06:18:19.607Z,70.06
2023-03-05T06:19:06.810Z,69.91
2023-03-05T06:19:55.630Z,69.82
2023-03-05T06:20:42.609Z,70.26
2023-03-05T06:21:29.712Z,69.57
2023-03-05T06:22:16.803Z,70.09
2023-03-05T06:23:03.880Z,69.42
2023-03-05T06:23:51.849Z,70.53
2023-03-05T06:24:39.238Z,69.60
2023-03-05T06:25:26.257Z,69.70
2023-03-05T06:26:15.630Z,69.72
2023-03-05T06:27:02.657Z,69.75
2023-03-05T06:27:49.705Z,69.58
2023-03-05T06:28:36.848Z,68.69
2023-03-05T06:29:23.932Z,68.39
2023-03-05T06:30:12.251Z,68.25
2023-03-05T06:31:10.451Z,68.60
2023-03-05T06:31:57.504Z,68.02
2023-03-05T06:32:44.652Z,68.24
2023-03-05T06:33:31.862Z,68.01
2023-03-05T06:34:18.786Z,68.95
2023-03-05T06:35:06.521Z,68.18
2023-03-05T06:35:53.578Z,67.58
2023-03-05T06:36:40.814Z,67.08
2023-03-05T06:37:27.805Z,66.97
2023-03-05T06:38:16.355Z,67.10
2023-03-05T06:39:05.198Z,67.29
2023-03-05T06:39:52.436Z,67.51
2023-03-05T06:40:40.886Z,67.80
2023-03-05T06:41:30.855Z,67.11
2023-03-05T06:42:20.904Z,66.82
2023-03-05T06:43:07.842Z,66.52
2023-03-05T06:43:55.575Z,66.80
2023-03-05T06:44:42.760Z,66.88
2023-03-05T06:45:29.797Z,66.69
2023-03-05T06:46:28.153Z,67.30
2023-03-05T06:47:15.384Z,67.36
2023-03-05T06:48:02.382Z,67.05
2023-03-05T06:48:49.717Z,67.29
2023-03-05T06:49:37.973Z,67.20
2023-03-05T06:50:25.118Z,67.26
2023-03-05T06:51:36.023Z,67.41
2023-03-05T06:52:22.988Z,67.66
2023-03-05T06:53:10.086Z,67.45
2023-03-05T06:54:01.170Z,67.27
2023-03-05T06:54:48.084Z,67.45
2023-03-05T06:55:40.055Z,67.32
2023-03-05T06:56:27.339Z,67.26
2023-03-05T06:57:16.260Z,67.27
2023-03-05T06:58:03.404Z,66.95
2023-03-05T06:58:51.925Z,66.93
2023-03-05T06:59:38.985Z,67.25
2023-03-05T07:00:29.822Z,67.24
2023-03-05T07:01:17.125Z,66.97
2023-03-05T07:02:04.323Z,66.76
2023-03-05T07:02:51.445Z,67.06
2023-03-05T07:03:40.510Z,67.11
2023-03-05T07:04:27.649Z,66.86
2023-03-05T07:05:14.564Z,66.92
2023-03-05T07:06:05.936Z,66.57
2023-03-05T07:06:52.846Z,66.46
2023-03-05T07:07:39.772Z,66.74
2023-03-05T07:08:26.639Z,66.66
2023-03-05T07:09:16.424Z,66.98
2023-03-05T07:10:04.507Z,66.89
2023-03-05T07:10:51.368Z,66.91
2023-03-05T07:11:38.360Z,66.62
2023-03-05T07:12:25.369Z,66.61
2023-03-05T07:13:12.334Z,66.60
2023-03-05T07:14:00.176Z,66.38
2023-03-05T07:14:47.660Z,66.62
2023-03-05T07:15:34.826Z,66.71
2023-03-05T07:16:28.127Z,66.55
2023-03-05T07:17:16.762Z,66.18
2023-03-05T07:18:04.187Z,66.38
2023-03-05T07:18:51.339Z,65.87
2023-03-05T07:19:38.915Z,65.87
2023-03-05T07:20:25.856Z,66.37
2023-03-05T07:21:17.986Z,66.80
2023-03-05T07:22:07.220Z,67.18
2023-03-05T07:22:54.261Z,67.50
2023-03-05T07:23:41.348Z,66.83
2023-03-05T07:24:30.531Z,67.03
2023-03-05T07:25:22.434Z,66.96
2023-03-05T07:26:11.068Z,66.58
2023-03-05T07:27:01.078Z,66.33
2023-03-05T07:27:49.939Z,66.69
2023-03-05T07:28:37.310Z,65.85
2023-03-05T07:29:25.688Z,66.00
2023-03-05T07:30:13.948Z,66.21
2023-03-05T07:31:07.159Z,66.41
2023-03-05T07:31:55.685Z,66.32
2023-03-05T07:32:42.941Z,66.44
2023-03-05T07:33:33.854Z,66.43
2023-03-05T07:34:31.454Z,66.36
2023-03-05T07:35:19.495Z,66.19
2023-03-05T07:36:10.178Z,66.43
2023-03-05T07:36:57.751Z,66.50
2023-03-05T07:37:44.812Z,66.44
2023-03-05T07:38:32.847Z,66.12
2023-03-05T07:39:22.202Z,65.62
2023-03-05T07:40:13.094Z,66.00
2023-03-05T07:41:05.218Z,65.76
2023-03-05T07:41:53.094Z,65.56
2023-03-05T07:42:40.196Z,65.28
2023-03-05T07:43:27.556Z,65.29
2023-03-05T07:44:15.099Z,65.06
2023-03-05T07:45:02.436Z,65.27
2023-03-05T07:45:49.516Z,65.18
2023-03-05T07:46:36.702Z,65.50
2023-03-05T07:47:28.186Z,65.83
2023-03-05T07:48:17.873Z,65.89
2023-03-05T07:49:06.368Z,65.31
2023-03-05T07:49:53.601Z,64.97
2023-03-05T07:50:40.919Z,65.14
2023-03-05T07:51:31.186Z,65.10
2023-03-05T07:52:18.320Z,64.92
2023-03-05T07:53:05.367Z,65.19
2023-03-05T07:53:53.830Z,65.33
2023-03-05T07:54:41.082Z,65.32
2023-03-05T07:55:28.098Z,65.29
2023-03-05T07:56:22.490Z,64.79
2023-03-05T07:57:12.764Z,64.35
2023-03-05T07:57:59.739Z,64.00
2023-03-05T07:58:46.780Z,63.61
2023-03-05T07:59:33.927Z,64.46
2023-03-05T08:00:21.111Z,64.63
2023-03-05T08:01:15.613Z,65.03
2023-03-05T08:02:02.626Z,65.52
2023-03-05T08:02:51.673Z,65.18
2023-03-05T08:03:39.827Z,64.64
2023-03-05T08:04:27.248Z,64.27
2023-03-05T08:05:14.910Z,64.13
2023-03-05T08:06:06.328Z,64.79
2023-03-05T08:06:53.400Z,64.26
2023-03-05T08:07:40.579Z,64.00
2023-03-05T08:08:27.720Z,64.16
2023-03-05T08:09:14.720Z,64.05
2023-03-05T08:10:01.763Z,64.22
2023-03-05T08:10:48.888Z,64.24
2023-03-05T08:11:35.882Z,63.68
2023-03-05T08:12:23.560Z,63.31
2023-03-05T08:13:11.064Z,63.62
2023-03-05T08:13:59.756Z,63.59
2023-03-05T08:14:48.583Z,63.65
2023-03-05T08:15:38.258Z,62.89
2023-03-05T08:16:27.354Z,63.22
2023-03-05T08:17:14.462Z,62.76
2023-03-05T08:18:01.494Z,63.24
2023-03-05T08:18:50.035Z,63.58
2023-03-05T08:19:37.049Z,63.30
2023-03-05T08:20:24.567Z,63.36
2023-03-05T08:21:37.975Z,62.69
2023-03-05T08:22:24.997Z,62.20
2023-03-05T08:23:12.086Z,62.00
2023-03-05T08:24:00.995Z,61.39
2023-03-05T08:24:48.392Z,61.48
2023-03-05T08:25:35.811Z,61.57
2023-03-05T08:26:25.159Z,61.22
2023-03-05T08:27:13.084Z,61.72
2023-03-05T08:28:01.177Z,60.92
2023-03-05T08:28:49.548Z,61.08
2023-03-05T08:29:36.900Z,60.68
2023-03-05T08:30:27.609Z,60.55
2023-03-05T08:31:16.658Z,60.38
2023-03-05T08:32:04.022Z,60.57
2023-03-05T08:32:51.100Z,60.38
2023-03-05T08:33:38.720Z,60.01
2023-03-05T08:34:25.732Z,59.66
2023-03-05T08:35:12.939Z,59.04
2023-03-05T08:36:00.179Z,58.73
2023-03-05T08:36:48.313Z,59.20
2023-03-05T08:37:35.342Z,59.26
2023-03-05T08:38:22.333Z,58.42
2023-03-05T08:39:10.223Z,58.29
2023-03-05T08:39:59.206Z,57.54
2023-03-05T08:40:46.247Z,57.25
2023-03-05T08:41:33.719Z,57.12
2023-03-05T08:42:20.702Z,57.15
2023-03-05T08:43:08.294Z,57.32
2023-03-05T08:43:55.621Z,56.96
2023-03-05T08:44:42.675Z,56.58
2023-03-05T08:45:30.218Z,56.53
2023-03-05T08:46:17.636Z,56.93
2023-03-05T08:47:04.766Z,56.78
2023-03-05T08:47:51.779Z,56.69
2023-03-05T08:48:38.974Z,56.57
2023-03-05T08:49:26.016Z,57.56
2023-03-05T08:50:13.074Z,57.35
2023-03-05T08:51:06.222Z,57.21
2023-03-05T08:51:53.255Z,57.15
2023-03-05T08:52:40.407Z,55.72
2023-03-05T08:53:27.462Z,57.19
2023-03-05T08:54:14.571Z,55.71
2023-03-05T08:55:01.658Z,55.69
2023-03-05T08:55:58.575Z,55.61
2023-03-05T08:56:46.359Z,55.45
2023-03-05T08:57:33.581Z,55.87
2023-03-05T08:58:20.648Z,55.25
2023-03-05T08:59:08.423Z,55.28
2023-03-05T08:59:55.448Z,54.63
2023-03-05T09:00:42.570Z,54.59
2023-03-05T09:01:31.626Z,54.23
2023-03-05T09:02:18.728Z,54.79
2023-03-05T09:03:05.866Z,54.33
2023-03-05T09:03:53.368Z,54.40
2023-03-05T09:04:40.783Z,55.10
2023-03-05T09:05:27.967Z,54.88
2023-03-05T09:06:14.956Z,55.02
2023-03-05T09:07:02.021Z,54.66
2023-03-05T09:07:49.151Z,54.79
2023-03-05T09:08:36.980Z,53.86
2023-03-05T09:09:24.272Z,54.34
2023-03-05T09:10:13.870Z,54.51
2023-03-05T09:11:06.396Z,54.42
2023-03-05T09:11:53.465Z,54.23
2023-03-05T09:12:43.493Z,53.85
2023-03-05T09:13:30.728Z,54.19
2023-03-05T09:14:18.243Z,54.05
2023-03-05T09:15:08.531Z,53.96
2023-03-05T09:15:57.765Z,53.79
2023-03-05T09:16:45.009Z,53.32
2023-03-05T09:17:32.085Z,53.51
2023-03-05T09:18:19.207Z,54.20
2023-03-05T09:19:09.215Z,54.77
2023-03-05T09:19:56.240Z,53.79
2023-03-05T09:20:43.303Z,53.68
2023-03-05T09:21:30.484Z,53.48
2023-03-05T09:22:17.688Z,54.23
2023-03-05T09:23:04.805Z,54.39
2023-03-05T09:23:52.086Z,54.51
2023-03-05T09:24:39.201Z,53.98
2023-03-05T09:25:26.411Z,53.81
2023-03-05T09:26:16.654Z,53.52
2023-03-05T09:27:03.746Z,53.19
2023-03-05T09:27:50.811Z,53.23
2023-03-05T09:28:38.227Z,53.73
2023-03-05T09:29:26.044Z,53.82
2023-03-05T09:30:14.189Z,54.10
2023-03-05T09:31:05.465Z,53.41
2023-03-05T09:31:52.757Z,53.24
2023-03-05T09:32:40.198Z,52.98
2023-03-05T09:33:27.291Z,53.02
2023-03-05T09:34:14.328Z,53.04
2023-03-05T09:35:01.383Z,53.39
2023-03-05T09:35:50.076Z,52.69
2023-03-05T09:36:37.125Z,53.04
2023-03-05T09:37:24.492Z,52.91
2023-03-05T09:38:12.173Z,52.57
2023-03-05T09:38:59.508Z,52.88
2023-03-05T09:39:46.610Z,53.35
2023-03-05T09:40:44.626Z,53.02
2023-03-05T09:41:53.120Z,53.03
2023-03-05T09:42:55.219Z,52.96
2023-03-05T09:44:19.924Z,53.02
2023-03-05T09:45:35.479Z,52.13
2023-03-05T09:46:36.213Z,52.27
2023-03-05T09:47:46.733Z,51.82
2023-03-05T09:48:52.647Z,52.10
2023-03-05T09:50:07.250Z,51.78
2023-03-05T09:50:59.208Z,52.10
2023-03-05T09:51:50.495Z,51.52
2023-03-05T09:52:55.318Z,52.06
2023-03-05T09:53:49.578Z,51.76
2023-03-05T09:54:40.292Z,52.44
2023-03-05T09:55:40.698Z,51.90
2023-03-05T09:56:31.401Z,52.04
2023-03-05T09:57:26.228Z,51.66
2023-03-05T09:58:15.081Z,51.08
2023-03-05T09:59:15.522Z,51.11
2023-03-05T10:00:09.142Z,52.11
2023-03-05T10:01:04.917Z,52.48
2023-03-05T10:01:53.563Z,52.84
2023-03-05T10:02:58.692Z,52.40
2023-03-05T10:04:14.273Z,51.95
2023-03-05T10:05:01.187Z,51.97
2023-03-05T10:05:54.980Z,51.92
2023-03-05T10:06:56.562Z,52.68
2023-03-05T10:07:45.696Z,51.79
2023-03-05T10:08:46.873Z,52.13
2023-03-05T10:09:57.086Z,52.21
2023-03-05T10:10:48.481Z,51.99
2023-03-05T10:11:54.328Z,52.27
2023-03-05T10:12:44.887Z,51.82
2023-03-05T10:13:38.653Z,51.71
2023-03-05T10:14:31.612Z,51.46
2023-03-05T10:15:27.416Z,51.46
2023-03-05T10:16:38.920Z,50.63
2023-03-05T10:17:28.576Z,51.21
2023-03-05T10:18:33.691Z,51.33
2023-03-05T10:19:38.023Z,51.90
2023-03-05T10:20:34.144Z,51.15
2023-03-05T10:22:15.292Z,51.01
2023-03-05T10:23:09.966Z,50.97
2023-03-05T10:24:39.905Z,50.51
2023-03-05T10:25:41.428Z,50.51
2023-03-05T10:26:36.675Z,51.49
2023-03-05T10:27:43.831Z,50.97
2023-03-05T10:28:33.937Z,50.01
2023-03-05T10:29:32.350Z,50.59